sensor_id;sensor_type;location;lat;lon;timestamp;P1;durP1;ratioP1;P2;durP2;ratioP2
5754;SDS011;2902;42.130;24.732;2023-01-13T00:02:04;4.33;;;4.03;;
5754;SDS011;2902;42.130;24.732;2023-01-13T00:04:31;4.77;;;3.80;;
5754;SDS011;2902;42.130;24.732;2023-01-13T00:06:57;3.73;;;3.53;;
5754;SDS011;2902;42.130;24.732;2023-01-13T00:09:24;4.03;;;3.73;;
5754;SDS011;2902;42.130;24.732;2023-01-13T00:11:52;3.90;;;3.70;;
5754;SDS011;2902;42.130;24.732;2023-01-13T00:14:20;3.93;;;3.67;;
5754;SDS011;2902;42.130;24.732;2023-01-13T00:16:47;3.70;;;3.50;;
5754;SDS011;2902;42.130;24.732;2023-01-13T00:19:13;3.70;;;3.50;;
5754;SDS011;2902;42.130;24.732;2023-01-13T00:21:40;3.90;;;3.70;;
5754;SDS011;2902;42.130;24.732;2023-01-13T00:24:08;4.10;;;3.80;;
5754;SDS011;2902;42.130;24.732;2023-01-13T00:26:35;4.47;;;4.17;;
5754;SDS011;2902;42.130;24.732;2023-01-13T00:29:03;4.60;;;4.30;;
5754;SDS011;2902;42.130;24.732;2023-01-13T00:31:30;4.27;;;3.97;;
5754;SDS011;2902;42.130;24.732;2023-01-13T00:33:57;4.03;;;3.73;;
5754;SDS011;2902;42.130;24.732;2023-01-13T00:36:25;4.80;;;4.17;;
5754;SDS011;2902;42.130;24.732;2023-01-13T00:38:53;4.00;;;3.60;;
5754;SDS011;2902;42.130;24.732;2023-01-13T00:41:21;3.70;;;3.50;;
5754;SDS011;2902;42.130;24.732;2023-01-13T00:43:48;3.60;;;3.40;;
5754;SDS011;2902;42.130;24.732;2023-01-13T00:46:16;4.03;;;3.83;;
5754;SDS011;2902;42.130;24.732;2023-01-13T00:48:44;4.03;;;3.73;;
5754;SDS011;2902;42.130;24.732;2023-01-13T00:51:12;3.87;;;3.60;;
5754;SDS011;2902;42.130;24.732;2023-01-13T00:53:43;4.10;;;3.80;;
5754;SDS011;2902;42.130;24.732;2023-01-13T00:56:12;3.90;;;3.67;;
5754;SDS011;2902;42.130;24.732;2023-01-13T00:58:40;4.00;;;3.70;;
5754;SDS011;2902;42.130;24.732;2023-01-13T01:01:09;3.57;;;3.37;;
5754;SDS011;2902;42.130;24.732;2023-01-13T01:03:39;4.50;;;4.20;;
5754;SDS011;2902;42.130;24.732;2023-01-13T01:06:06;4.10;;;3.90;;
5754;SDS011;2902;42.130;24.732;2023-01-13T01:08:36;4.07;;;3.77;;
5754;SDS011;2902;42.130;24.732;2023-01-13T01:11:03;4.27;;;3.97;;
5754;SDS011;2902;42.130;24.732;2023-01-13T01:13:31;4.50;;;4.10;;
5754;SDS011;2902;42.130;24.732;2023-01-13T01:15:58;4.40;;;4.10;;
5754;SDS011;2902;42.130;24.732;2023-01-13T01:18:28;3.80;;;3.60;;
5754;SDS011;2902;42.130;24.732;2023-01-13T01:20:59;3.83;;;3.53;;
5754;SDS011;2902;42.130;24.732;2023-01-13T01:23:26;3.67;;;3.37;;
5754;SDS011;2902;42.130;24.732;2023-01-13T01:25:53;3.60;;;3.40;;
5754;SDS011;2902;42.130;24.732;2023-01-13T01:28:20;3.90;;;3.70;;
5754;SDS011;2902;42.130;24.732;2023-01-13T01:30:46;3.50;;;3.30;;
5754;SDS011;2902;42.130;24.732;2023-01-13T01:33:13;4.07;;;3.77;;
5754;SDS011;2902;42.130;24.732;2023-01-13T01:35:40;3.80;;;3.60;;
5754;SDS011;2902;42.130;24.732;2023-01-13T01:38:08;4.07;;;3.80;;
5754;SDS011;2902;42.130;24.732;2023-01-13T01:40:35;3.73;;;3.37;;
5754;SDS011;2902;42.130;24.732;2023-01-13T01:43:04;3.80;;;3.60;;
5754;SDS011;2902;42.130;24.732;2023-01-13T01:45:55;3.10;;;2.90;;
5754;SDS011;2902;42.130;24.732;2023-01-13T01:48:22;3.67;;;3.43;;
5754;SDS011;2902;42.130;24.732;2023-01-13T01:50:49;3.93;;;3.63;;
5754;SDS011;2902;42.130;24.732;2023-01-13T01:53:17;4.57;;;3.63;;
5754;SDS011;2902;42.130;24.732;2023-01-13T01:55:49;3.77;;;3.57;;
5754;SDS011;2902;42.130;24.732;2023-01-13T01:58:17;3.73;;;3.53;;
5754;SDS011;2902;42.130;24.732;2023-01-13T02:00:47;3.93;;;3.70;;
5754;SDS011;2902;42.130;24.732;2023-01-13T02:03:14;3.63;;;2.90;;
5754;SDS011;2902;42.130;24.732;2023-01-13T02:05:42;3.60;;;3.40;;
5754;SDS011;2902;42.130;24.732;2023-01-13T02:08:10;3.40;;;3.20;;
5754;SDS011;2902;42.130;24.732;2023-01-13T02:10:40;3.87;;;3.60;;
5754;SDS011;2902;42.130;24.732;2023-01-13T02:13:10;4.17;;;3.60;;
5754;SDS011;2902;42.130;24.732;2023-01-13T02:15:40;3.77;;;3.57;;
5754;SDS011;2902;42.130;24.732;2023-01-13T02:18:18;3.80;;;3.60;;
5754;SDS011;2902;42.130;24.732;2023-01-13T02:20:56;3.57;;;3.37;;
5754;SDS011;2902;42.130;24.732;2023-01-13T02:23:46;3.67;;;3.47;;
5754;SDS011;2902;42.130;24.732;2023-01-13T02:30:08;3.23;;;3.13;;
5754;SDS011;2902;42.130;24.732;2023-01-13T02:33:07;4.20;;;3.90;;
5754;SDS011;2902;42.130;24.732;2023-01-13T02:35:46;3.67;;;3.47;;
5754;SDS011;2902;42.130;24.732;2023-01-13T02:38:16;4.60;;;3.53;;
5754;SDS011;2902;42.130;24.732;2023-01-13T02:40:49;3.80;;;3.60;;
5754;SDS011;2902;42.130;24.732;2023-01-13T02:43:24;3.87;;;3.53;;
5754;SDS011;2902;42.130;24.732;2023-01-13T02:46:19;3.60;;;3.37;;
5754;SDS011;2902;42.130;24.732;2023-01-13T02:48:50;3.70;;;3.50;;
5754;SDS011;2902;42.130;24.732;2023-01-13T02:51:20;4.03;;;3.83;;
5754;SDS011;2902;42.130;24.732;2023-01-13T02:53:52;3.43;;;3.23;;
5754;SDS011;2902;42.130;24.732;2023-01-13T02:56:25;3.50;;;3.30;;
5754;SDS011;2902;42.130;24.732;2023-01-13T02:58:52;4.03;;;3.83;;
5754;SDS011;2902;42.130;24.732;2023-01-13T03:01:22;3.53;;;3.33;;
5754;SDS011;2902;42.130;24.732;2023-01-13T03:03:50;3.90;;;3.70;;
5754;SDS011;2902;42.130;24.732;2023-01-13T03:06:22;3.60;;;3.50;;
5754;SDS011;2902;42.130;24.732;2023-01-13T03:09:02;3.63;;;3.43;;
5754;SDS011;2902;42.130;24.732;2023-01-13T03:11:37;4.53;;;4.03;;
5754;SDS011;2902;42.130;24.732;2023-01-13T03:14:13;4.40;;;4.13;;
5754;SDS011;2902;42.130;24.732;2023-01-13T03:16:57;4.10;;;3.80;;
5754;SDS011;2902;42.130;24.732;2023-01-13T03:19:35;3.83;;;3.53;;
5754;SDS011;2902;42.130;24.732;2023-01-13T03:22:10;4.00;;;3.70;;
5754;SDS011;2902;42.130;24.732;2023-01-13T03:24:43;4.30;;;4.10;;
5754;SDS011;2902;42.130;24.732;2023-01-13T03:27:19;4.10;;;3.83;;
5754;SDS011;2902;42.130;24.732;2023-01-13T03:29:49;4.53;;;4.23;;
5754;SDS011;2902;42.130;24.732;2023-01-13T03:32:24;4.60;;;4.30;;
5754;SDS011;2902;42.130;24.732;2023-01-13T03:34:56;4.00;;;3.80;;
5754;SDS011;2902;42.130;24.732;2023-01-13T03:37:29;4.00;;;3.80;;
5754;SDS011;2902;42.130;24.732;2023-01-13T03:40:02;4.93;;;4.47;;
5754;SDS011;2902;42.130;24.732;2023-01-13T03:42:33;4.00;;;3.80;;
5754;SDS011;2902;42.130;24.732;2023-01-13T03:45:04;3.60;;;3.40;;
5754;SDS011;2902;42.130;24.732;2023-01-13T03:47:37;3.70;;;3.50;;
5754;SDS011;2902;42.130;24.732;2023-01-13T03:50:06;4.50;;;4.30;;
5754;SDS011;2902;42.130;24.732;2023-01-13T03:52:39;3.80;;;3.47;;
5754;SDS011;2902;42.130;24.732;2023-01-13T03:55:10;3.90;;;3.70;;
5754;SDS011;2902;42.130;24.732;2023-01-13T03:57:40;4.00;;;3.70;;
5754;SDS011;2902;42.130;24.732;2023-01-13T04:00:12;3.90;;;3.70;;
5754;SDS011;2902;42.130;24.732;2023-01-13T04:02:49;3.90;;;3.70;;
5754;SDS011;2902;42.130;24.732;2023-01-13T04:05:19;5.70;;;3.97;;
5754;SDS011;2902;42.130;24.732;2023-01-13T04:07:49;3.70;;;3.50;;
5754;SDS011;2902;42.130;24.732;2023-01-13T04:10:21;3.90;;;3.70;;
5754;SDS011;2902;42.130;24.732;2023-01-13T04:12:54;3.90;;;3.60;;
5754;SDS011;2902;42.130;24.732;2023-01-13T04:15:28;3.80;;;3.50;;
5754;SDS011;2902;42.130;24.732;2023-01-13T04:18:07;3.63;;;3.43;;
5754;SDS011;2902;42.130;24.732;2023-01-13T04:20:39;3.83;;;3.63;;
5754;SDS011;2902;42.130;24.732;2023-01-13T04:23:06;3.60;;;3.40;;
5754;SDS011;2902;42.130;24.732;2023-01-13T04:25:33;4.00;;;3.60;;
5754;SDS011;2902;42.130;24.732;2023-01-13T04:28:01;3.60;;;3.40;;
5754;SDS011;2902;42.130;24.732;2023-01-13T04:30:27;3.60;;;3.40;;
5754;SDS011;2902;42.130;24.732;2023-01-13T04:32:54;10.23;;;3.70;;
5754;SDS011;2902;42.130;24.732;2023-01-13T04:35:22;4.17;;;3.73;;
5754;SDS011;2902;42.130;24.732;2023-01-13T04:37:49;4.07;;;3.17;;
5754;SDS011;2902;42.130;24.732;2023-01-13T04:40:16;4.20;;;3.80;;
5754;SDS011;2902;42.130;24.732;2023-01-13T04:42:43;3.73;;;3.40;;
5754;SDS011;2902;42.130;24.732;2023-01-13T04:45:10;3.40;;;3.20;;
5754;SDS011;2902;42.130;24.732;2023-01-13T04:47:37;3.63;;;3.33;;
5754;SDS011;2902;42.130;24.732;2023-01-13T04:50:04;3.23;;;3.03;;
5754;SDS011;2902;42.130;24.732;2023-01-13T04:52:32;3.47;;;3.23;;
5754;SDS011;2902;42.130;24.732;2023-01-13T04:54:59;3.23;;;3.00;;
5754;SDS011;2902;42.130;24.732;2023-01-13T04:57:26;3.57;;;3.37;;
5754;SDS011;2902;42.130;24.732;2023-01-13T04:59:52;5.33;;;3.87;;
5754;SDS011;2902;42.130;24.732;2023-01-13T05:02:19;3.80;;;3.50;;
5754;SDS011;2902;42.130;24.732;2023-01-13T05:04:46;3.90;;;3.50;;
5754;SDS011;2902;42.130;24.732;2023-01-13T05:07:13;8.73;;;5.23;;
5754;SDS011;2902;42.130;24.732;2023-01-13T05:09:42;5.07;;;4.10;;
5754;SDS011;2902;42.130;24.732;2023-01-13T05:12:09;22.40;;;4.07;;
5754;SDS011;2902;42.130;24.732;2023-01-13T05:14:53;3.83;;;3.40;;
5754;SDS011;2902;42.130;24.732;2023-01-13T05:17:38;8.40;;;3.77;;
5754;SDS011;2902;42.130;24.732;2023-01-13T05:20:05;11.13;;;3.60;;
5754;SDS011;2902;42.130;24.732;2023-01-13T05:22:34;5.50;;;3.33;;
5754;SDS011;2902;42.130;24.732;2023-01-13T05:25:19;10.40;;;4.03;;
5754;SDS011;2902;42.130;24.732;2023-01-13T05:27:47;5.40;;;4.27;;
5754;SDS011;2902;42.130;24.732;2023-01-13T05:30:14;14.17;;;4.33;;
5754;SDS011;2902;42.130;24.732;2023-01-13T05:32:41;4.00;;;3.70;;
5754;SDS011;2902;42.130;24.732;2023-01-13T05:35:08;7.20;;;3.50;;
5754;SDS011;2902;42.130;24.732;2023-01-13T05:37:35;9.77;;;3.67;;
5754;SDS011;2902;42.130;24.732;2023-01-13T05:40:02;4.50;;;4.10;;
5754;SDS011;2902;42.130;24.732;2023-01-13T05:42:48;6.10;;;3.93;;
5754;SDS011;2902;42.130;24.732;2023-01-13T05:45:43;3.87;;;3.67;;
5754;SDS011;2902;42.130;24.732;2023-01-13T05:48:10;4.10;;;3.80;;
5754;SDS011;2902;42.130;24.732;2023-01-13T05:50:37;3.70;;;3.40;;
5754;SDS011;2902;42.130;24.732;2023-01-13T05:53:04;4.30;;;3.50;;
5754;SDS011;2902;42.130;24.732;2023-01-13T05:55:30;14.43;;;4.10;;
5754;SDS011;2902;42.130;24.732;2023-01-13T05:57:59;21.97;;;4.57;;
5754;SDS011;2902;42.130;24.732;2023-01-13T06:00:25;9.27;;;3.30;;
5754;SDS011;2902;42.130;24.732;2023-01-13T06:02:52;25.60;;;4.37;;
5754;SDS011;2902;42.130;24.732;2023-01-13T06:05:19;18.77;;;4.37;;
5754;SDS011;2902;42.130;24.732;2023-01-13T06:07:45;21.30;;;5.07;;
5754;SDS011;2902;42.130;24.732;2023-01-13T06:10:12;5.90;;;3.90;;
5754;SDS011;2902;42.130;24.732;2023-01-13T06:12:39;10.17;;;4.37;;
5754;SDS011;2902;42.130;24.732;2023-01-13T06:15:07;32.30;;;5.57;;
5754;SDS011;2902;42.130;24.732;2023-01-13T06:17:34;10.33;;;4.20;;
5754;SDS011;2902;42.130;24.732;2023-01-13T06:20:01;4.80;;;4.03;;
5754;SDS011;2902;42.130;24.732;2023-01-13T06:22:29;14.83;;;5.40;;
5754;SDS011;2902;42.130;24.732;2023-01-13T06:24:57;35.93;;;6.53;;
5754;SDS011;2902;42.130;24.732;2023-01-13T06:27:24;25.00;;;6.07;;
5754;SDS011;2902;42.130;24.732;2023-01-13T06:29:51;7.13;;;3.77;;
5754;SDS011;2902;42.130;24.732;2023-01-13T06:32:19;37.30;;;6.03;;
5754;SDS011;2902;42.130;24.732;2023-01-13T06:34:50;6.23;;;4.00;;
5754;SDS011;2902;42.130;24.732;2023-01-13T06:37:20;29.63;;;5.30;;
5754;SDS011;2902;42.130;24.732;2023-01-13T06:39:50;4.40;;;4.20;;
5754;SDS011;2902;42.130;24.732;2023-01-13T06:42:20;12.07;;;4.27;;
5754;SDS011;2902;42.130;24.732;2023-01-13T06:45:05;6.63;;;4.70;;
5754;SDS011;2902;42.130;24.732;2023-01-13T06:47:34;4.30;;;4.00;;
5754;SDS011;2902;42.130;24.732;2023-01-13T06:50:01;9.77;;;4.70;;
5754;SDS011;2902;42.130;24.732;2023-01-13T06:52:28;19.00;;;6.00;;
5754;SDS011;2902;42.130;24.732;2023-01-13T06:54:54;9.67;;;6.13;;
5754;SDS011;2902;42.130;24.732;2023-01-13T06:57:21;13.30;;;8.17;;
5754;SDS011;2902;42.130;24.732;2023-01-13T06:59:48;17.97;;;8.40;;
5754;SDS011;2902;42.130;24.732;2023-01-13T07:02:15;17.10;;;9.23;;
5754;SDS011;2902;42.130;24.732;2023-01-13T07:04:43;32.73;;;12.80;;
5754;SDS011;2902;42.130;24.732;2023-01-13T07:07:10;15.40;;;9.00;;
5754;SDS011;2902;42.130;24.732;2023-01-13T07:09:37;10.13;;;7.10;;
5754;SDS011;2902;42.130;24.732;2023-01-13T07:12:04;31.10;;;11.43;;
5754;SDS011;2902;42.130;24.732;2023-01-13T07:14:31;18.00;;;9.10;;
5754;SDS011;2902;42.130;24.732;2023-01-13T07:17:15;11.40;;;8.40;;
5754;SDS011;2902;42.130;24.732;2023-01-13T07:19:50;16.03;;;7.60;;
5754;SDS011;2902;42.130;24.732;2023-01-13T07:22:17;17.53;;;9.40;;
5754;SDS011;2902;42.130;24.732;2023-01-13T07:24:43;68.63;;;21.70;;
5754;SDS011;2902;42.130;24.732;2023-01-13T07:27:11;37.33;;;13.60;;
5754;SDS011;2902;42.130;24.732;2023-01-13T07:29:38;47.67;;;14.73;;
5754;SDS011;2902;42.130;24.732;2023-01-13T07:32:05;23.13;;;12.10;;
5754;SDS011;2902;42.130;24.732;2023-01-13T07:34:32;7.47;;;6.87;;
5754;SDS011;2902;42.130;24.732;2023-01-13T07:37:00;8.67;;;7.10;;
5754;SDS011;2902;42.130;24.732;2023-01-13T07:39:27;7.30;;;6.60;;
5754;SDS011;2902;42.130;24.732;2023-01-13T07:41:54;20.00;;;8.13;;
5754;SDS011;2902;42.130;24.732;2023-01-13T07:44:37;18.40;;;7.87;;
5754;SDS011;2902;42.130;24.732;2023-01-13T07:47:04;8.33;;;5.90;;
5754;SDS011;2902;42.130;24.732;2023-01-13T07:49:32;10.67;;;5.73;;
5754;SDS011;2902;42.130;24.732;2023-01-13T07:52:00;12.80;;;6.83;;
5754;SDS011;2902;42.130;24.732;2023-01-13T07:54:27;22.33;;;7.00;;
5754;SDS011;2902;42.130;24.732;2023-01-13T07:56:54;9.10;;;6.43;;
5754;SDS011;2902;42.130;24.732;2023-01-13T07:59:21;13.77;;;6.13;;
5754;SDS011;2902;42.130;24.732;2023-01-13T08:01:48;14.97;;;7.33;;
5754;SDS011;2902;42.130;24.732;2023-01-13T08:04:17;12.17;;;8.20;;
5754;SDS011;2902;42.130;24.732;2023-01-13T08:06:44;8.30;;;7.40;;
5754;SDS011;2902;42.130;24.732;2023-01-13T08:09:12;7.27;;;6.57;;
5754;SDS011;2902;42.130;24.732;2023-01-13T08:11:39;26.03;;;7.60;;
5754;SDS011;2902;42.130;24.732;2023-01-13T08:14:05;8.33;;;7.30;;
5754;SDS011;2902;42.130;24.732;2023-01-13T08:16:32;6.10;;;5.50;;
5754;SDS011;2902;42.130;24.732;2023-01-13T08:18:59;7.00;;;6.40;;
5754;SDS011;2902;42.130;24.732;2023-01-13T08:21:26;13.27;;;6.87;;
5754;SDS011;2902;42.130;24.732;2023-01-13T08:23:52;6.90;;;6.23;;
5754;SDS011;2902;42.130;24.732;2023-01-13T08:26:20;8.93;;;6.90;;
5754;SDS011;2902;42.130;24.732;2023-01-13T08:28:47;15.67;;;6.43;;
5754;SDS011;2902;42.130;24.732;2023-01-13T08:31:14;7.00;;;6.33;;
5754;SDS011;2902;42.130;24.732;2023-01-13T08:33:43;8.43;;;7.67;;
5754;SDS011;2902;42.130;24.732;2023-01-13T08:36:11;44.53;;;16.00;;
5754;SDS011;2902;42.130;24.732;2023-01-13T08:38:38;17.30;;;9.43;;
5754;SDS011;2902;42.130;24.732;2023-01-13T08:41:08;31.60;;;15.37;;
5754;SDS011;2902;42.130;24.732;2023-01-13T08:43:37;23.23;;;10.77;;
5754;SDS011;2902;42.130;24.732;2023-01-13T08:46:04;58.57;;;19.53;;
5754;SDS011;2902;42.130;24.732;2023-01-13T08:48:31;25.17;;;12.93;;
5754;SDS011;2902;42.130;24.732;2023-01-13T08:51:02;22.67;;;12.30;;
5754;SDS011;2902;42.130;24.732;2023-01-13T08:53:30;28.90;;;12.80;;
5754;SDS011;2902;42.130;24.732;2023-01-13T08:55:57;20.27;;;10.90;;
5754;SDS011;2902;42.130;24.732;2023-01-13T08:58:24;36.20;;;16.27;;
5754;SDS011;2902;42.130;24.732;2023-01-13T09:00:52;16.23;;;10.23;;
5754;SDS011;2902;42.130;24.732;2023-01-13T09:03:18;27.33;;;11.67;;
5754;SDS011;2902;42.130;24.732;2023-01-13T09:05:45;10.53;;;8.73;;
5754;SDS011;2902;42.130;24.732;2023-01-13T09:08:12;10.23;;;9.50;;
5754;SDS011;2902;42.130;24.732;2023-01-13T09:10:38;10.43;;;9.33;;
5754;SDS011;2902;42.130;24.732;2023-01-13T09:13:05;21.03;;;9.60;;
5754;SDS011;2902;42.130;24.732;2023-01-13T09:15:36;10.47;;;9.37;;
5754;SDS011;2902;42.130;24.732;2023-01-13T09:18:04;40.00;;;13.73;;
5754;SDS011;2902;42.130;24.732;2023-01-13T09:20:31;15.33;;;11.10;;
5754;SDS011;2902;42.130;24.732;2023-01-13T09:22:58;50.23;;;17.87;;
5754;SDS011;2902;42.130;24.732;2023-01-13T09:25:24;36.57;;;10.47;;
5754;SDS011;2902;42.130;24.732;2023-01-13T09:27:51;10.37;;;8.90;;
5754;SDS011;2902;42.130;24.732;2023-01-13T09:30:18;16.17;;;9.53;;
5754;SDS011;2902;42.130;24.732;2023-01-13T09:32:45;21.60;;;10.00;;
5754;SDS011;2902;42.130;24.732;2023-01-13T09:35:13;22.87;;;9.50;;
5754;SDS011;2902;42.130;24.732;2023-01-13T09:37:39;12.43;;;9.40;;
5754;SDS011;2902;42.130;24.732;2023-01-13T09:40:07;22.63;;;12.67;;
5754;SDS011;2902;42.130;24.732;2023-01-13T09:42:42;10.07;;;9.03;;
5754;SDS011;2902;42.130;24.732;2023-01-13T09:45:30;24.43;;;11.60;;
5754;SDS011;2902;42.130;24.732;2023-01-13T09:48:01;11.40;;;10.07;;
5754;SDS011;2902;42.130;24.732;2023-01-13T09:53:29;33.17;;;13.30;;
5754;SDS011;2902;42.130;24.732;2023-01-13T09:55:58;18.87;;;11.00;;
5754;SDS011;2902;42.130;24.732;2023-01-13T09:58:25;13.23;;;11.50;;
5754;SDS011;2902;42.130;24.732;2023-01-13T10:00:56;18.23;;;10.57;;
5754;SDS011;2902;42.130;24.732;2023-01-13T10:03:31;22.00;;;10.27;;
5754;SDS011;2902;42.130;24.732;2023-01-13T10:06:02;18.80;;;9.57;;
5754;SDS011;2902;42.130;24.732;2023-01-13T10:08:36;23.70;;;11.13;;
5754;SDS011;2902;42.130;24.732;2023-01-13T10:11:05;11.97;;;10.90;;
5754;SDS011;2902;42.130;24.732;2023-01-13T10:13:54;16.53;;;12.07;;
5754;SDS011;2902;42.130;24.732;2023-01-13T10:16:25;14.67;;;12.37;;
5754;SDS011;2902;42.130;24.732;2023-01-13T10:19:02;27.37;;;15.30;;
5754;SDS011;2902;42.130;24.732;2023-01-13T10:21:44;19.13;;;12.83;;
5754;SDS011;2902;42.130;24.732;2023-01-13T10:24:25;17.80;;;13.13;;
5754;SDS011;2902;42.130;24.732;2023-01-13T10:27:02;17.50;;;10.33;;
5754;SDS011;2902;42.130;24.732;2023-01-13T10:29:30;39.77;;;11.47;;
5754;SDS011;2902;42.130;24.732;2023-01-13T10:31:58;23.43;;;11.43;;
5754;SDS011;2902;42.130;24.732;2023-01-13T10:34:25;16.10;;;10.03;;
5754;SDS011;2902;42.130;24.732;2023-01-13T10:36:55;17.67;;;14.03;;
5754;SDS011;2902;42.130;24.732;2023-01-13T10:39:40;24.97;;;18.23;;
5754;SDS011;2902;42.130;24.732;2023-01-13T10:42:11;13.63;;;11.10;;
5754;SDS011;2902;42.130;24.732;2023-01-13T10:44:45;38.90;;;10.13;;
5754;SDS011;2902;42.130;24.732;2023-01-13T10:47:21;23.97;;;10.23;;
5754;SDS011;2902;42.130;24.732;2023-01-13T10:49:59;17.53;;;9.40;;
5754;SDS011;2902;42.130;24.732;2023-01-13T10:52:31;16.10;;;8.43;;
5754;SDS011;2902;42.130;24.732;2023-01-13T10:55:01;14.07;;;8.80;;
5754;SDS011;2902;42.130;24.732;2023-01-13T10:57:30;11.87;;;7.97;;
5754;SDS011;2902;42.130;24.732;2023-01-13T11:00:02;12.37;;;7.50;;
5754;SDS011;2902;42.130;24.732;2023-01-13T11:02:31;15.93;;;12.03;;
5754;SDS011;2902;42.130;24.732;2023-01-13T11:05:00;27.60;;;15.40;;
5754;SDS011;2902;42.130;24.732;2023-01-13T11:07:36;11.53;;;8.30;;
5754;SDS011;2902;42.130;24.732;2023-01-13T11:10:09;9.10;;;6.73;;
5754;SDS011;2902;42.130;24.732;2023-01-13T11:12:44;19.50;;;9.07;;
5754;SDS011;2902;42.130;24.732;2023-01-13T11:15:19;15.43;;;12.77;;
5754;SDS011;2902;42.130;24.732;2023-01-13T11:17:50;14.33;;;11.20;;
5754;SDS011;2902;42.130;24.732;2023-01-13T11:20:27;14.07;;;11.50;;
5754;SDS011;2902;42.130;24.732;2023-01-13T11:23:00;16.80;;;12.23;;
5754;SDS011;2902;42.130;24.732;2023-01-13T11:25:33;21.07;;;12.70;;
5754;SDS011;2902;42.130;24.732;2023-01-13T11:28:13;21.30;;;15.17;;
5754;SDS011;2902;42.130;24.732;2023-01-13T11:30:48;30.80;;;19.57;;
5754;SDS011;2902;42.130;24.732;2023-01-13T11:33:26;32.27;;;13.20;;
5754;SDS011;2902;42.130;24.732;2023-01-13T11:36:02;10.47;;;9.40;;
5754;SDS011;2902;42.130;24.732;2023-01-13T11:38:36;10.57;;;9.47;;
5754;SDS011;2902;42.130;24.732;2023-01-13T11:41:11;13.83;;;9.73;;
5754;SDS011;2902;42.130;24.732;2023-01-13T11:43:45;31.67;;;11.83;;
5754;SDS011;2902;42.130;24.732;2023-01-13T11:46:16;23.93;;;11.93;;
5754;SDS011;2902;42.130;24.732;2023-01-13T11:48:43;17.83;;;14.77;;
5754;SDS011;2902;42.130;24.732;2023-01-13T11:51:13;14.33;;;12.87;;
5754;SDS011;2902;42.130;24.732;2023-01-13T11:53:55;13.57;;;12.17;;
5754;SDS011;2902;42.130;24.732;2023-01-13T11:56:40;12.00;;;10.97;;
5754;SDS011;2902;42.130;24.732;2023-01-13T11:59:34;12.27;;;10.97;;
5754;SDS011;2902;42.130;24.732;2023-01-13T12:02:22;11.17;;;10.03;;
5754;SDS011;2902;42.130;24.732;2023-01-13T12:05:01;13.70;;;10.37;;
5754;SDS011;2902;42.130;24.732;2023-01-13T12:07:35;15.03;;;9.20;;
5754;SDS011;2902;42.130;24.732;2023-01-13T12:10:11;11.50;;;9.47;;
5754;SDS011;2902;42.130;24.732;2023-01-13T12:12:50;14.33;;;10.30;;
5754;SDS011;2902;42.130;24.732;2023-01-13T12:18:35;13.23;;;9.53;;
5754;SDS011;2902;42.130;24.732;2023-01-13T12:21:16;15.00;;;10.73;;
5754;SDS011;2902;42.130;24.732;2023-01-13T12:23:46;60.63;;;13.17;;
5754;SDS011;2902;42.130;24.732;2023-01-13T12:26:21;13.90;;;8.37;;
5754;SDS011;2902;42.130;24.732;2023-01-13T12:28:50;12.23;;;8.70;;
5754;SDS011;2902;42.130;24.732;2023-01-13T12:31:21;42.30;;;9.20;;
5754;SDS011;2902;42.130;24.732;2023-01-13T12:33:52;18.20;;;9.63;;
5754;SDS011;2902;42.130;24.732;2023-01-13T12:36:28;16.87;;;9.67;;
5754;SDS011;2902;42.130;24.732;2023-01-13T12:39:02;138.63;;;17.57;;
5754;SDS011;2902;42.130;24.732;2023-01-13T12:41:41;20.83;;;11.73;;
5754;SDS011;2902;42.130;24.732;2023-01-13T12:44:29;22.23;;;9.60;;
5754;SDS011;2902;42.130;24.732;2023-01-13T12:46:57;11.97;;;8.80;;
5754;SDS011;2902;42.130;24.732;2023-01-13T12:49:28;9.80;;;8.87;;
5754;SDS011;2902;42.130;24.732;2023-01-13T12:55:07;10.03;;;8.67;;
5754;SDS011;2902;42.130;24.732;2023-01-13T12:57:40;10.63;;;9.63;;
5754;SDS011;2902;42.130;24.732;2023-01-13T13:00:56;16.87;;;9.70;;
5754;SDS011;2902;42.130;24.732;2023-01-13T13:03:26;21.63;;;10.63;;
5754;SDS011;2902;42.130;24.732;2023-01-13T13:06:02;18.33;;;9.90;;
5754;SDS011;2902;42.130;24.732;2023-01-13T13:08:45;32.87;;;17.67;;
5754;SDS011;2902;42.130;24.732;2023-01-13T13:17:40;17.87;;;10.87;;
5754;SDS011;2902;42.130;24.732;2023-01-13T13:23:24;14.00;;;9.93;;
5754;SDS011;2902;42.130;24.732;2023-01-13T13:26:13;22.43;;;10.30;;
5754;SDS011;2902;42.130;24.732;2023-01-13T13:28:45;29.97;;;9.90;;
5754;SDS011;2902;42.130;24.732;2023-01-13T13:31:26;14.43;;;9.83;;
5754;SDS011;2902;42.130;24.732;2023-01-13T13:34:07;11.77;;;9.47;;
5754;SDS011;2902;42.130;24.732;2023-01-13T13:36:47;14.07;;;8.97;;
5754;SDS011;2902;42.130;24.732;2023-01-13T13:39:22;22.00;;;10.00;;
5754;SDS011;2902;42.130;24.732;2023-01-13T13:42:10;21.37;;;9.03;;
5754;SDS011;2902;42.130;24.732;2023-01-13T13:44:56;81.00;;;12.37;;
5754;SDS011;2902;42.130;24.732;2023-01-13T13:47:43;29.07;;;15.03;;
5754;SDS011;2902;42.130;24.732;2023-01-13T13:50:11;17.53;;;12.03;;
5754;SDS011;2902;42.130;24.732;2023-01-13T13:52:40;35.10;;;13.87;;
5754;SDS011;2902;42.130;24.732;2023-01-13T13:55:16;15.53;;;11.70;;
5754;SDS011;2902;42.130;24.732;2023-01-13T13:57:46;22.03;;;12.27;;
5754;SDS011;2902;42.130;24.732;2023-01-13T14:00:24;25.67;;;11.33;;
5754;SDS011;2902;42.130;24.732;2023-01-13T14:02:55;23.80;;;10.97;;
5754;SDS011;2902;42.130;24.732;2023-01-13T14:05:24;16.07;;;10.93;;
5754;SDS011;2902;42.130;24.732;2023-01-13T14:07:57;15.63;;;10.47;;
5754;SDS011;2902;42.130;24.732;2023-01-13T14:10:27;35.80;;;11.40;;
5754;SDS011;2902;42.130;24.732;2023-01-13T14:12:57;39.83;;;11.60;;
5754;SDS011;2902;42.130;24.732;2023-01-13T14:15:27;18.13;;;11.70;;
5754;SDS011;2902;42.130;24.732;2023-01-13T14:18:01;76.03;;;15.57;;
5754;SDS011;2902;42.130;24.732;2023-01-13T14:20:30;43.67;;;13.77;;
5754;SDS011;2902;42.130;24.732;2023-01-13T14:22:58;29.33;;;13.63;;
5754;SDS011;2902;42.130;24.732;2023-01-13T14:25:30;24.43;;;13.50;;
5754;SDS011;2902;42.130;24.732;2023-01-13T14:27:59;41.90;;;13.50;;
5754;SDS011;2902;42.130;24.732;2023-01-13T14:30:33;37.70;;;11.77;;
5754;SDS011;2902;42.130;24.732;2023-01-13T14:33:01;23.60;;;13.50;;
5754;SDS011;2902;42.130;24.732;2023-01-13T14:35:28;19.63;;;11.80;;
5754;SDS011;2902;42.130;24.732;2023-01-13T14:38:00;24.07;;;13.17;;
5754;SDS011;2902;42.130;24.732;2023-01-13T14:40:41;42.87;;;14.90;;
5754;SDS011;2902;42.130;24.732;2023-01-13T14:43:12;24.13;;;14.23;;
5754;SDS011;2902;42.130;24.732;2023-01-13T14:45:41;43.73;;;20.43;;
5754;SDS011;2902;42.130;24.732;2023-01-13T14:48:20;31.60;;;18.67;;
5754;SDS011;2902;42.130;24.732;2023-01-13T14:50:55;80.37;;;20.67;;
5754;SDS011;2902;42.130;24.732;2023-01-13T14:53:28;27.07;;;16.93;;
5754;SDS011;2902;42.130;24.732;2023-01-13T14:59:29;43.63;;;15.67;;
5754;SDS011;2902;42.130;24.732;2023-01-13T15:01:58;32.30;;;15.53;;
5754;SDS011;2902;42.130;24.732;2023-01-13T15:04:30;38.13;;;16.97;;
5754;SDS011;2902;42.130;24.732;2023-01-13T15:07:01;27.20;;;17.13;;
5754;SDS011;2902;42.130;24.732;2023-01-13T15:09:37;88.83;;;29.10;;
5754;SDS011;2902;42.130;24.732;2023-01-13T15:12:15;81.60;;;25.70;;
5754;SDS011;2902;42.130;24.732;2023-01-13T15:14:47;60.50;;;21.43;;
5754;SDS011;2902;42.130;24.732;2023-01-13T15:17:15;29.87;;;15.27;;
5754;SDS011;2902;42.130;24.732;2023-01-13T15:19:44;39.70;;;16.13;;
5754;SDS011;2902;42.130;24.732;2023-01-13T15:22:10;35.50;;;15.53;;
5754;SDS011;2902;42.130;24.732;2023-01-13T15:24:37;30.10;;;15.63;;
5754;SDS011;2902;42.130;24.732;2023-01-13T15:27:09;21.23;;;14.90;;
5754;SDS011;2902;42.130;24.732;2023-01-13T15:29:43;24.77;;;16.80;;
5754;SDS011;2902;42.130;24.732;2023-01-13T15:32:10;48.17;;;18.87;;
5754;SDS011;2902;42.130;24.732;2023-01-13T15:34:44;34.27;;;17.17;;
5754;SDS011;2902;42.130;24.732;2023-01-13T15:37:11;47.97;;;19.13;;
5754;SDS011;2902;42.130;24.732;2023-01-13T15:39:38;37.47;;;17.77;;